Time;durP1;ratioP1;P1;durP2;ratioP2;P2;SDS_P1;SDS_P2;PMS_P1;PMS_P2;Temp;Humidity;BMP_temperature;BMP_pressure;BME280_temperature;BME280_humidity;BME280_pressure;Samples;Min_cycle;Max_cycle;Signal;HPM_P1;HPM_P2
2023/12/01 00:00:53;;;;;;;14.30;3.08;;;;;;;;;;5093094;28;20062;-72
2023/12/01 00:03:57;;;;;;;22.80;4.10;;;;;;;;;;5092723;28;20059;-72
2023/12/01 00:07:01;;;;;;;18.88;3.80;;;;;;;;;;5092976;28;20039;-72
2023/12/01 00:10:10;;;;;;;19.02;4.03;;;18.00;99.90;;;;;;5092862;28;20047;-72
2023/12/01 00:13:14;;;;;;;18.27;3.38;;;;;;;;;;5092637;28;20051;-72
2023/12/01 00:16:19;;;;;;;15.05;3.45;;;;;;;;;;5092597;28;20063;-72
2023/12/01 00:19:23;;;;;;;19.67;3.70;;;;;;;;;;5092503;28;20510;-72
2023/12/01 00:22:28;;;;;;;24.60;4.65;;;;;;;;;;5091513;28;20044;-73
2023/12/01 00:25:32;;;;;;;17.30;4.10;;;;;;;;;;5092529;28;20046;-72
2023/12/01 00:28:36;;;;;;;24.70;5.20;;;;;;;;;;5092300;28;20039;-71
2023/12/01 00:31:41;;;;;;;16.77;2.92;;;;;;;;;;5092675;28;20055;-71
2023/12/01 00:34:45;;;;;;;20.92;3.70;;;;;;;;;;5092165;28;20051;-73
2023/12/01 00:37:49;;;;;;;18.52;4.07;;;;;;;;;;5092047;28;20035;-72
2023/12/01 00:40:54;;;;;;;17.52;3.92;;;;;;;;;;5079981;28;20106;-72
2023/12/01 00:43:58;;;;;;;18.60;3.42;;;;;;;;;;5079584;28;20058;-73
2023/12/01 00:47:02;;;;;;;16.25;3.08;;;;;;;;;;5092174;28;20518;-72
2023/12/01 00:50:09;;;;;;;19.63;4.35;;;;;;;;;;5092246;28;20050;-72
2023/12/01 00:53:13;;;;;;;17.05;3.78;;;;;;;;;;5079581;28;20154;-72
2023/12/01 00:56:17;;;;;;;15.52;3.47;;;;;;;;;;5092083;28;20039;-72
2023/12/01 00:59:21;;;;;;;19.25;3.63;;;;;;;;;;5091941;28;20028;-72
2023/12/01 01:02:26;;;;;;;18.80;3.45;;;;;;;;;;5091781;28;20039;-71
2023/12/01 01:05:30;;;;;;;17.23;3.50;;;;;;;;;;5079510;28;20035;-72
2023/12/01 01:08:34;;;;;;;14.52;3.55;;;;;;;;;;5091775;28;20058;-72
2023/12/01 01:11:38;;;;;;;20.58;3.75;;;;;;;;;;5079288;28;20047;-71
2023/12/01 01:14:43;;;;;;;16.02;3.40;;;;;;;;;;5091768;28;20050;-72
2023/12/01 01:17:47;;;;;;;20.55;3.88;;;;;;;;;;5091249;28;20055;-72
2023/12/01 01:20:51;;;;;;;19.67;4.25;;;;;;;;;;5079041;28;20047;-72
2023/12/01 01:23:56;;;;;;;20.90;3.88;;;;;;;;;;5091250;28;20063;-72
2023/12/01 01:27:00;;;;;;;21.17;3.53;;;;;;;;;;5091418;28;20037;-72
2023/12/01 01:30:05;;;;;;;17.63;3.53;;;;;;;;;;5091300;28;20067;-72
2023/12/01 01:33:08;;;;;;;18.10;3.60;;;;;;;;;;5091586;28;20039;-72
2023/12/01 01:36:13;;;;;;;13.57;3.38;;;;;;;;;;5091604;28;20054;-71
2023/12/01 01:39:17;;;;;;;17.63;3.38;;;;;;;;;;5078940;28;20043;-72
2023/12/01 01:42:21;;;;;;;15.32;3.38;;;;;;;;;;5091152;28;20039;-73
2023/12/01 01:45:26;;;;;;;12.80;3.13;;;;;;;;;;5091145;28;20043;-72
2023/12/01 01:48:32;;;;;;;21.95;3.45;;;;;;;;;;5078798;28;20042;-73
2023/12/01 01:51:36;;;;;;;16.02;3.78;;;;;;;;;;5078495;28;20047;-72
2023/12/01 01:54:40;;;;;;;15.68;3.30;;;;;;;;;;5078901;28;20043;-73
2023/12/01 01:57:44;;;;;;;19.15;3.97;;;;;;;;;;5078641;28;20043;-73
2023/12/01 02:00:52;;;;;;;14.02;3.92;;;20.40;99.90;;;;;;5078509;28;20051;-73
2023/12/01 02:03:56;;;;;;;13.18;3.20;;;;;;;;;;5078117;28;20403;-72
2023/12/01 02:07:01;;;;;;;25.38;4.13;;;;;;;;;;5078160;28;20039;-72
2023/12/01 02:10:06;;;;;;;16.30;3.70;;;18.10;99.90;;;;;;5078209;28;20388;-72
2023/12/01 02:13:14;;;;;;;14.68;3.33;;;;;;;;;;5091026;28;20046;-72
2023/12/01 02:16:19;;;;;;;19.05;4.32;;;;;;;;;;5078392;28;20043;-72
2023/12/01 02:19:23;;;;;;;19.92;4.18;;;;;;;;;;5078467;28;20055;-72
2023/12/01 02:22:28;;;;;;;17.67;4.28;;;;;;;;;;5090936;28;20039;-72
2023/12/01 02:25:32;;;;;;;23.05;3.80;;;;;;;;;;5090732;28;20047;-72
2023/12/01 02:28:37;;;;;;;19.67;3.50;;;;;;;;;;5078410;28;20569;-73
2023/12/01 02:31:41;;;;;;;22.23;3.58;;;;;;;;;;5090863;28;20384;-73
2023/12/01 02:34:45;;;;;;;19.27;3.53;;;;;;;;;;5090921;28;20039;-73
2023/12/01 02:37:49;;;;;;;19.40;3.67;;;;;;;;;;5090595;28;20039;-72
2023/12/01 02:40:53;;;;;;;24.25;4.10;;;;;;;;;;5078596;28;20046;-72
2023/12/01 02:44:01;;;;;;;18.80;3.55;;;;;;;;;;5078776;28;20055;-72
2023/12/01 02:47:05;;;;;;;26.98;4.70;;;;;;;;;;5092856;28;20035;-72
2023/12/01 02:50:12;;;;;;;17.45;4.00;;;;;;;;;;5094865;28;20043;-72
2023/12/01 02:53:16;;;;;;;15.70;3.47;;;;;;;;;;5094901;28;20043;-72
2023/12/01 02:56:20;;;;;;;18.35;3.55;;;;;;;;;;5082109;28;20059;-72
2023/12/01 02:59:24;;;;;;;24.55;4.10;;;;;;;;;;5094630;28;20058;-71
2023/12/01 03:02:31;;;;;;;25.77;4.07;;;;;;;;;;5094217;28;20351;-72
2023/12/01 03:05:35;;;;;;;18.90;3.58;;;;;;;;;;5094151;28;20055;-71
2023/12/01 03:08:40;;;;;;;24.27;4.10;;;;;;;;;;5093962;28;20388;-72
2023/12/01 03:11:46;;;;;;;27.58;4.32;;;;;;;;;;5094249;28;20047;-72
2023/12/01 03:14:50;;;;;;;32.60;4.07;;;;;;;;;;5093784;28;20043;-72
2023/12/01 03:17:55;;;;;;;23.13;4.57;;;;;;;;;;5080818;28;20498;-72
2023/12/01 03:21:00;;;;;;;29.13;4.53;;;;;;;;;;5093594;28;20055;-72
2023/12/01 03:24:04;;;;;;;19.38;3.55;;;;;;;;;;5093660;28;20051;-72
2023/12/01 03:27:09;;;;;;;22.00;4.22;;;;;;;;;;5093862;28;20039;-72
2023/12/01 03:30:15;;;;;;;23.45;4.50;;;17.30;99.90;;;;;;5081416;28;20055;-72
2023/12/01 03:33:19;;;;;;;26.77;4.07;;;;;;;;;;5094040;28;20047;-72
2023/12/01 03:36:23;;;;;;;18.92;3.63;;;;;;;;;;5093759;28;20047;-72
2023/12/01 03:39:27;;;;;;;29.58;4.22;;;;;;;;;;5081195;28;20039;-72
2023/12/01 03:42:31;;;;;;;17.90;3.95;;;;;;;;;;5080757;28;20047;-72
2023/12/01 03:45:36;;;;;;;22.63;3.97;;;;;;;;;;5093644;28;20047;-72
2023/12/01 03:48:40;;;;;;;29.38;5.00;;;;;;;;;;5080904;28;20035;-72
2023/12/01 03:51:48;;;;;;;18.52;4.75;;;;;;;;;;5093139;28;20403;-73
2023/12/01 03:54:52;;;;;;;30.45;4.63;;;;;;;;;;5093329;28;20043;-73
2023/12/01 03:57:56;;;;;;;27.70;4.47;;;;;;;;;;5080224;28;20407;-73
2023/12/01 04:01:05;;;;;;;21.08;4.57;;;;;;;;;;5092905;28;20055;-73
2023/12/01 04:04:10;;;;;;;27.00;4.03;;;;;;;;;;5093117;28;20503;-72
2023/12/01 04:07:14;;;;;;;28.02;5.07;;;;;;;;;;5093225;28;20035;-73
2023/12/01 04:10:19;;;;;;;30.08;4.93;;;;;;;;;;5093174;28;20043;-73
2023/12/01 04:13:24;;;;;;;30.77;4.32;;;;;;;;;;5092871;28;20053;-73
2023/12/01 04:16:28;;;;;;;26.90;4.07;;;;;;;;;;5092580;28;20400;-73
2023/12/01 04:19:33;;;;;;;20.73;4.53;;;;;;;;;;5092643;28;20068;-73
2023/12/01 04:22:37;;;;;;;24.83;4.47;;;;;;;;;;5080057;28;20047;-73
2023/12/01 04:25:47;;;;;;;31.50;4.00;;;18.40;99.90;;;;;;5092556;28;20396;-73
2023/12/01 04:28:52;;;;;;;28.60;4.63;;;;;;;;;;5092770;28;20058;-72
2023/12/01 04:32:00;;;;;;;27.40;4.07;;;18.50;99.90;;;;;;5092634;28;20529;-73
2023/12/01 04:35:04;;;;;;;32.55;4.35;;;;;;;;;;5092538;28;20035;-73
2023/12/01 04:38:09;;;;;;;21.77;3.80;;;;;;;;;;5092176;28;20055;-73
2023/12/01 04:41:13;;;;;;;29.48;6.10;;;;;;;;;;5080150;28;20495;-73
2023/12/01 04:44:18;;;;;;;25.95;4.93;;;;;;;;;;5092167;28;20054;-73
2023/12/01 04:47:22;;;;;;;31.58;4.65;;;;;;;;;;5092317;28;20388;-73
2023/12/01 04:50:27;;;;;;;24.20;4.47;;;;;;;;;;5092017;28;20039;-73
2023/12/01 04:53:31;;;;;;;33.53;5.78;;;;;;;;;;5091840;28;20043;-73
2023/12/01 04:56:35;;;;;;;29.83;5.63;;;;;;;;;;5092485;28;20426;-73
2023/12/01 04:59:40;;;;;;;23.35;3.92;;;19.10;99.90;;;;;;5091805;28;20039;-73
2023/12/01 05:02:44;;;;;;;30.33;4.10;;;;;;;;;;5092079;28;20043;-72
2023/12/01 05:05:49;;;;;;;27.27;5.20;;;;;;;;;;5091834;28;20047;-73
2023/12/01 05:08:53;;;;;;;21.40;4.07;;;;;;;;;;5091157;28;20051;-73
2023/12/01 05:11:57;;;;;;;26.73;4.72;;;;;;;;;;5091992;28;20054;-73
2023/12/01 05:15:02;;;;;;;26.95;4.68;;;;;;;;;;5091781;28;20398;-73
2023/12/01 05:18:12;;;;;;;38.03;4.82;;;18.20;99.90;;;;;;5091336;28;20538;-73
2023/12/01 05:21:16;;;;;;;24.70;4.25;;;;;;;;;;5091828;28;20063;-72
2023/12/01 05:24:22;;;;;;;28.58;4.72;;;;;;;;;;5091426;28;20059;-73
2023/12/01 05:27:26;;;;;;;25.77;3.97;;;;;;;;;;5091198;28;20035;-73
2023/12/01 05:30:33;;;;;;;29.25;4.50;;;20.40;99.90;;;;;;5078972;28;20044;-72
2023/12/01 05:33:38;;;;;;;27.13;4.85;;;;;;;;;;5091385;28;20187;-73
2023/12/01 05:36:42;;;;;;;24.13;4.35;;;;;;;;;;5091447;28;20649;-73
2023/12/01 05:39:46;;;;;;;30.15;4.35;;;;;;;;;;5091489;28;20110;-73
2023/12/01 05:42:54;;;;;;;24.33;4.00;;;18.40;99.90;;;;;;5091349;28;20103;-73
2023/12/01 05:45:59;;;;;;;31.75;5.40;;;;;;;;;;5091295;28;20058;-72
2023/12/01 05:49:03;;;;;;;27.98;4.53;;;;;;;;;;5091330;28;20376;-73
2023/12/01 05:52:07;;;;;;;22.00;4.47;;;;;;;;;;5091081;28;20063;-71
2023/12/01 05:55:16;;;;;;;29.85;4.38;;;17.10;99.90;;;;;;5091204;28;20047;-72
2023/12/01 05:58:21;;;;;;;35.20;4.68;;;;;;;;;;5091031;28;20047;-71
2023/12/01 06:01:25;;;;;;;31.85;4.72;;;;;;;;;;5090901;28;20047;-72
2023/12/01 06:04:30;;;;;;;30.05;4.28;;;;;;;;;;5090866;28;20047;-72
2023/12/01 06:07:36;;;;;;;30.48;4.22;;;15.60;99.40;;;;;;5091130;28;20047;-72
2023/12/01 06:10:43;;;;;;;29.40;4.70;;;;;;;;;;5090914;28;20051;-72
2023/12/01 06:13:48;;;;;;;31.38;4.32;;;;;;;;;;5090873;28;20400;-72
2023/12/01 06:16:52;;;;;;;30.98;5.60;;;;;;;;;;5090613;28;20047;-72
2023/12/01 06:19:56;;;;;;;34.30;4.90;;;;;;;;;;5091548;28;20047;-71
2023/12/01 06:23:05;;;;;;;31.83;4.80;;;;;;;;;;5095068;28;20399;-72
2023/12/01 06:26:09;;;;;;;29.27;5.28;;;;;;;;;;5095050;28;20661;-72
2023/12/01 06:29:13;;;;;;;26.83;4.75;;;;;;;;;;5082341;28;20034;-72
2023/12/01 06:32:20;;;;;;;34.65;4.60;;;;;;;;;;5094724;28;20051;-72
2023/12/01 06:35:25;;;;;;;22.92;5.20;;;;;;;;;;5094608;28;20047;-72
2023/12/01 06:38:29;;;;;;;35.78;6.07;;;;;;;;;;5094876;28;20043;-72
2023/12/01 06:41:33;;;;;;;32.67;6.07;;;;;;;;;;5094671;28;20499;-72
2023/12/01 06:44:37;;;;;;;28.08;5.45;;;;;;;;;;5094302;28;20404;-72
2023/12/01 06:47:45;;;;;;;27.05;5.88;;;;;;;;;;5094413;28;20043;-72
2023/12/01 06:50:50;;;;;;;31.05;4.70;;;;;;;;;;5094449;28;20059;-72
2023/12/01 06:53:56;;;;;;;28.95;5.32;;;;;;;;;;5094237;28;20537;-71
2023/12/01 06:57:00;;;;;;;40.28;6.75;;;;;;;;;;5094189;28;20038;-71
2023/12/01 07:00:28;;;;;;;40.30;5.75;;;19.10;99.30;;;;;;5093948;28;20043;-72
2023/12/01 07:03:33;;;;;;;29.55;5.47;;;;;;;;;;5093908;28;20051;-72
2023/12/01 07:06:38;;;;;;;31.13;6.03;;;;;;;;;;5094145;28;20051;-72
2023/12/01 07:09:45;;;;;;;37.85;5.55;;;18.90;99.50;;;;;;5093898;28;20074;-72
2023/12/01 07:12:50;;;;;;;28.33;4.85;;;;;;;;;;5093907;28;20051;-72
2023/12/01 07:15:54;;;;;;;24.25;4.40;;;;;;;;;;5093660;28;20050;-69
2023/12/01 07:18:58;;;;;;;31.48;4.47;;;;;;;;;;5093948;28;20070;-68
2023/12/01 07:22:03;;;;;;;35.58;5.63;;;;;;;;;;5093702;28;20039;-68
2023/12/01 07:25:10;;;;;;;32.75;5.07;;;;;;;;;;5093676;28;20055;-68
2023/12/01 07:28:14;;;;;;;31.60;4.47;;;;;;;;;;5094122;28;20047;-68
2023/12/01 07:31:19;;;;;;;22.80;4.38;;;;;;;;;;5093368;28;20042;-68
2023/12/01 07:34:23;;;;;;;29.40;4.68;;;;;;;;;;5093619;28;20043;-68
2023/12/01 07:37:27;;;;;;;36.20;5.38;;;;;;;;;;5093629;28;20042;-67
2023/12/01 07:40:35;;;;;;;22.85;4.47;;;19.60;98.20;;;;;;5093615;28;20035;-67
2023/12/01 07:43:40;;;;;;;25.88;5.07;;;;;;;;;;5093455;28;20509;-67
2023/12/01 07:46:45;;;;;;;24.65;4.45;;;;;;;;;;5092968;28;20043;-69
2023/12/01 07:49:49;;;;;;;19.02;3.80;;;;;;;;;;5093508;28;20043;-68
2023/12/01 07:52:53;;;;;;;30.98;4.90;;;;;;;;;;5093206;28;20495;-67
2023/12/01 07:55:59;;;;;;;30.98;4.95;;;;;;;;;;5093314;28;20396;-69
2023/12/01 07:59:05;;;;;;;31.27;4.35;;;;;;;;;;5093230;28;20051;-68
2023/12/01 08:02:09;;;;;;;25.98;4.50;;;;;;;;;;5093056;28;20047;-68
2023/12/01 08:05:14;;;;;;;22.65;4.55;;;20.00;97.40;;;;;;5092546;28;20135;-68
2023/12/01 08:08:18;;;;;;;25.30;3.95;;;;;;;;;;5092796;28;20043;-68
2023/12/01 08:11:22;;;;;;;35.67;4.00;;;;;;;;;;5092930;28;20055;-70
2023/12/01 08:14:27;;;;;;;30.25;4.05;;;;;;;;;;5092835;28;20043;-67
2023/12/01 08:17:31;;;;;;;21.73;4.75;;;;;;;;;;5092398;28;20055;-68
2023/12/01 08:20:36;;;;;;;23.27;4.28;;;;;;;;;;5092771;28;20043;-67
2023/12/01 08:23:40;;;;;;;27.45;4.60;;;;;;;;;;5092359;28;20585;-68
2023/12/01 08:26:46;;;;;;;36.03;5.00;;;;;;;;;;5092462;28;20656;-68
2023/12/01 08:29:51;;;;;;;37.40;6.00;;;;;;;;;;5092006;28;20047;-68
2023/12/01 08:32:55;;;;;;;30.27;4.32;;;;;;;;;;5092034;28;20047;-67
2023/12/01 08:36:00;;;;;;;31.42;4.03;;;;;;;;;;5092114;28;20403;-67
2023/12/01 08:39:04;;;;;;;27.10;4.75;;;;;;;;;;5092255;28;20470;-67
2023/12/01 08:42:09;;;;;;;25.52;4.18;;;;;;;;;;5092196;28;20044;-67
2023/12/01 08:45:13;;;;;;;25.95;4.40;;;;;;;;;;5091006;28;20051;-67
2023/12/01 08:48:17;;;;;;;34.83;5.80;;;;;;;;;;5092108;28;20035;-68
2023/12/01 08:51:22;;;;;;;21.50;4.18;;;;;;;;;;5091900;28;20043;-67
2023/12/01 08:54:26;;;;;;;28.08;4.18;;;;;;;;;;5091705;28;20514;-67
2023/12/01 08:57:31;;;;;;;23.70;4.18;;;;;;;;;;5092115;28;20043;-68
2023/12/01 09:00:35;;;;;;;24.48;4.47;;;;;;;;;;5091858;28;20076;-69
2023/12/01 09:03:39;;;;;;;30.80;4.30;;;;;;;;;;5091912;28;20054;-69
2023/12/01 09:06:43;;;;;;;26.70;4.80;;;;;;;;;;5091619;28;20043;-67
2023/12/01 09:09:48;;;;;;;28.50;4.75;;;;;;;;;;5091541;28;20051;-68
2023/12/01 09:12:52;;;;;;;34.70;5.60;;;;;;;;;;5091943;28;20039;-67
2023/12/01 09:15:56;;;;;;;28.73;4.82;;;;;;;;;;5091774;28;20653;-67
2023/12/01 09:19:01;;;;;;;34.20;4.60;;;;;;;;;;5091532;28;20407;-67
2023/12/01 09:22:06;;;;;;;39.42;5.82;;;;;;;;;;5091767;28;20047;-68
2023/12/01 09:25:10;;;;;;;29.55;4.80;;;;;;;;;;5091135;28;20062;-67
2023/12/01 09:28:15;;;;;;;37.88;5.57;;;;;;;;;;5091593;28;20039;-68
2023/12/01 09:31:19;;;;;;;28.20;4.63;;;;;;;;;;5091284;28;20051;-67
2023/12/01 09:34:23;;;;;;;35.33;5.53;;;21.50;93.10;;;;;;5091387;28;20499;-68
2023/12/01 09:37:27;;;;;;;35.15;5.88;;;;;;;;;;5091381;28;20368;-68
2023/12/01 09:40:37;;;;;;;34.17;6.00;;;21.50;93.20;;;;;;5091449;28;20502;-67
2023/12/01 09:43:43;;;;;;;33.55;6.60;;;21.70;92.70;;;;;;5091014;28;20047;-67
2023/12/01 09:46:50;;;;;;;27.45;4.80;;;21.90;91.70;;;;;;5091229;28;20039;-68
2023/12/01 09:49:55;;;;;;;31.27;4.75;;;;;;;;;;5091253;28;20510;-67
2023/12/01 09:52:58;;;;;;;32.15;6.03;;;21.40;92.40;;;;;;5091154;28;20427;-68
2023/12/01 09:56:05;;;;;;;29.50;5.95;;;;;;;;;;5090461;28;20039;-69
2023/12/01 09:59:15;;;;;;;26.65;4.47;;;21.20;92.10;;;;;;5090681;28;20051;-68
2023/12/01 10:02:19;;;;;;;34.25;4.75;;;;;;;;;;5090941;28;20399;-67
2023/12/01 10:05:25;;;;;;;21.55;3.75;;;;;;;;;;5090627;28;20051;-68
2023/12/01 10:08:32;;;;;;;25.15;4.80;;;21.00;92.00;;;;;;5090898;28;20366;-68
2023/12/01 10:11:37;;;;;;;29.52;4.78;;;20.80;92.20;;;;;;5090746;28;20063;-68
2023/12/01 10:14:45;;;;;;;27.45;4.18;;;;;;;;;;5090980;28;20043;-68
2023/12/01 10:17:49;;;;;;;27.00;5.03;;;;;;;;;;5077799;28;20510;-67
2023/12/01 10:21:03;;;;;;;26.38;4.05;;;20.90;92.40;;;;;;5090742;28;20043;-66
2023/12/01 10:24:27;;;;;;;31.63;4.90;;;20.90;92.60;;;;;;5090581;28;20039;-67
2023/12/01 10:27:31;;;;;;;29.02;4.88;;;19.60;92.70;;;;;;5090571;28;20067;-67
2023/12/01 10:30:39;;;;;;;26.25;5.00;;;;;;;;;;5090661;28;20051;-67
2023/12/01 10:33:43;;;;;;;28.10;5.03;;;;;;;;;;5090857;28;20110;-66
2023/12/01 10:36:47;;;;;;;26.67;4.22;;;21.10;92.60;;;;;;5090513;28;20043;-67
2023/12/01 10:39:54;;;;;;;28.20;4.60;;;21.40;92.60;;;;;;5090793;28;20035;-68
2023/12/01 10:42:58;;;;;;;23.42;4.35;;;;;;;;;;5090305;28;20062;-68
2023/12/01 10:46:05;;;;;;;21.40;4.72;;;21.90;92.10;;;;;;5090418;28;20069;-68
2023/12/01 10:49:09;;;;;;;33.30;4.82;;;;;;;;;;5090590;28;20043;-68
2023/12/01 10:52:15;;;;;;;29.75;4.72;;;19.90;90.90;;;;;;5090614;28;20066;-67
2023/12/01 10:55:20;;;;;;;28.75;5.15;;;;;;;;;;5090419;28;20545;-68
2023/12/01 10:58:25;;;;;;;25.52;4.40;;;21.10;91.70;;;;;;5090553;28;20051;-68
2023/12/01 11:01:29;;;;;;;33.17;4.85;;;21.90;92.00;;;;;;5090059;28;20062;-68
2023/12/01 11:04:34;;;;;;;30.75;4.65;;;;;;;;;;5090358;28;20055;-67
2023/12/01 11:07:49;;;;;;;27.27;4.18;;;22.30;92.20;;;;;;5091600;28;20114;-67
2023/12/01 11:11:16;;;;;;;24.92;4.28;;;21.70;92.20;;;;;;5094087;28;20035;-67
2023/12/01 11:14:21;;;;;;;27.55;4.00;;;21.50;92.30;;;;;;5093871;28;20035;-68
2023/12/01 11:17:25;;;;;;;26.00;4.50;;;;;;;;;;5093340;28;20628;-68
2023/12/01 11:20:30;;;;;;;35.00;5.45;;;;;;;;;;5094112;28;20066;-67
2023/12/01 11:23:35;;;;;;;34.42;5.03;;;;;;;;;;5093753;28;20043;-67
2023/12/01 11:26:39;;;;;;;31.58;4.75;;;21.20;92.40;;;;;;5093697;28;20055;-68
2023/12/01 11:29:58;;;;;;;33.63;6.40;;;21.30;92.70;;;;;;5093795;28;20039;-68
2023/12/01 11:33:06;;;;;;;26.58;5.03;;;21.30;92.80;;;;;;5093683;28;20047;-68
2023/12/01 11:36:28;;;;;;;24.48;5.35;;;21.40;93.00;;;;;;5093423;28;20043;-68
2023/12/01 11:39:34;;;;;;;26.25;4.45;;;;;;;;;;5080700;28;20526;-68
2023/12/01 11:42:42;;;;;;;37.38;5.32;;;21.40;92.70;;;;;;5093513;28;20066;-69
2023/12/01 11:45:47;;;;;;;30.50;5.63;;;;;;;;;;5093049;28;20092;-70
2023/12/01 11:48:51;;;;;;;26.73;5.05;;;20.90;92.90;;;;;;5093365;28;20059;-69
2023/12/01 11:51:55;;;;;;;41.58;6.05;;;;;;;;;;5092619;28;20050;-68
2023/12/01 11:55:00;;;;;;;33.33;5.15;;;21.40;92.60;;;;;;5080220;28;20039;-69
2023/12/01 11:58:05;;;;;;;41.60;5.72;;;;;;;;;;5092853;28;20055;-68
2023/12/01 12:01:10;;;;;;;31.77;5.15;;;;;;;;;;5092864;28;20051;-68
2023/12/01 12:04:16;;;;;;;40.63;5.30;;;;;;;;;;5092840;28;20051;-68
2023/12/01 12:07:20;;;;;;;40.97;6.28;;;;;;;;;;5092708;28;20047;-68
2023/12/01 12:10:24;;;;;;;39.13;6.00;;;;;;;;;;5092493;28;20047;-67
2023/12/01 12:13:29;;;;;;;41.65;6.22;;;;;;;;;;5092584;28;20051;-67
2023/12/01 12:16:34;;;;;;;33.00;5.97;;;21.30;93.00;;;;;;5092597;28;20395;-68
2023/12/01 12:19:42;;;;;;;37.63;4.88;;;21.20;92.90;;;;;;5092721;28;20232;-68
2023/12/01 12:22:46;;;;;;;35.08;5.30;;;;;;;;;;5092422;28;20047;-68
2023/12/01 12:25:52;;;;;;;35.83;6.13;;;;;;;;;;5092150;28;20055;-68
2023/12/01 12:29:03;;;;;;;35.75;5.35;;;21.90;93.10;;;;;;5092646;28;20047;-68
2023/12/01 12:32:08;;;;;;;36.28;6.18;;;;;;;;;;5092505;28;20047;-68
2023/12/01 12:35:12;;;;;;;49.63;6.43;;;;;;;;;;5092455;28;20039;-68
2023/12/01 12:38:16;;;;;;;40.95;6.68;;;;;;;;;;5092219;28;20039;-67
2023/12/01 12:41:25;;;;;;;33.92;5.43;;;21.00;93.20;;;;;;5092217;28;20106;-67
2023/12/01 12:44:30;;;;;;;42.40;7.03;;;;;;;;;;5092146;28;20051;-67
2023/12/01 12:47:34;;;;;;;33.50;5.95;;;;;;;;;;5092067;28;20682;-67
2023/12/01 12:50:47;;;;;;;35.70;5.68;;;20.90;93.00;;;;;;5092797;28;20054;-67
2023/12/01 12:53:53;;;;;;;29.42;5.35;;;20.70;93.30;;;;;;5092159;28;20114;-67
2023/12/01 12:56:57;;;;;;;32.45;5.40;;;20.80;93.10;;;;;;5091775;28;20054;-67
2023/12/01 13:00:01;;;;;;;38.38;5.18;;;;;;;;;;5092410;28;20047;-67
2023/12/01 13:03:06;;;;;;;42.67;5.88;;;;;;;;;;5079624;28;20055;-67
2023/12/01 13:06:13;;;;;;;28.80;5.38;;;20.70;93.30;;;;;;5091698;28;20050;-67
2023/12/01 13:09:18;;;;;;;32.45;4.97;;;;;;;;;;5091621;28;20035;-66
2023/12/01 13:12:22;;;;;;;31.95;5.60;;;;;;;;;;5091500;28;20391;-67
2023/12/01 13:15:26;;;;;;;31.55;5.30;;;;;;;;;;5091326;28;20534;-67
2023/12/01 13:18:30;;;;;;;29.40;5.65;;;;;;;;;;5091194;28;20059;-67
2023/12/01 13:21:35;;;;;;;31.52;5.60;;;;;;;;;;5091787;28;20047;-67
2023/12/01 13:24:39;;;;;;;40.00;4.88;;;;;;;;;;5091397;28;20499;-67
2023/12/01 13:27:46;;;;;;;35.08;5.78;;;20.60;93.90;;;;;;5089328;28;20561;-67
2023/12/01 13:30:52;;;;;;;40.65;5.93;;;;;;;;;;5090951;28;20384;-69
2023/12/01 13:33:56;;;;;;;44.95;6.68;;;;;;;;;;5091188;28;20043;-68
2023/12/01 13:37:01;;;;;;;44.72;5.38;;;;;;;;;;5091408;28;20070;-67
2023/12/01 13:40:08;;;;;;;40.60;6.20;;;19.10;93.80;;;;;;5091233;28;20043;-68
2023/12/01 13:43:12;;;;;;;36.17;5.63;;;;;;;;;;5091330;28;20495;-68
2023/12/01 13:46:16;;;;;;;35.70;5.82;;;;;;;;;;5090957;28;20063;-68
2023/12/01 13:49:22;;;;;;;33.22;5.15;;;20.50;94.10;;;;;;5091391;28;20047;-69
2023/12/01 13:52:27;;;;;;;46.03;6.60;;;;;;;;;;5078870;28;20063;-69
2023/12/01 13:55:31;;;;;;;34.13;5.47;;;;;;;;;;5091169;28;20043;-69
2023/12/01 13:58:36;;;;;;;44.58;6.43;;;;;;;;;;5091216;28;20061;-69
2023/12/01 14:01:40;;;;;;;49.47;5.80;;;;;;;;;;5078454;28;20096;-69
2023/12/01 14:04:44;;;;;;;47.97;6.05;;;;;;;;;;5090594;28;20048;-69
2023/12/01 14:07:49;;;;;;;31.55;5.47;;;;;;;;;;5090871;28;20035;-70
2023/12/01 14:10:53;;;;;;;36.47;5.47;;;;;;;;;;5090973;28;20047;-70
2023/12/01 14:13:57;;;;;;;43.20;6.80;;;;;;;;;;5078672;28;20395;-69
2023/12/01 14:17:01;;;;;;;42.67;6.10;;;;;;;;;;5090568;28;20514;-70
2023/12/01 14:20:06;;;;;;;38.63;4.93;;;20.20;93.70;;;;;;5090590;28;20055;-69
2023/12/01 14:23:11;;;;;;;37.40;5.10;;;;;;;;;;5090450;28;20047;-70
2023/12/01 14:26:15;;;;;;;30.85;4.60;;;;;;;;;;5090298;28;20518;-70
2023/12/01 14:29:19;;;;;;;35.35;5.35;;;;;;;;;;5090413;28;20047;-69
2023/12/01 14:32:24;;;;;;;38.72;5.90;;;;;;;;;;5090829;28;20055;-69
2023/12/01 14:35:28;;;;;;;27.95;5.30;;;;;;;;;;5090910;28;20043;-70
2023/12/01 14:38:32;;;;;;;28.77;5.05;;;;;;;;;;5090724;28;20051;-70
2023/12/01 14:41:36;;;;;;;35.03;5.05;;;;;;;;;;5090530;28;20051;-69
2023/12/01 14:44:41;;;;;;;40.25;5.95;;;;;;;;;;5094506;28;20043;-70
2023/12/01 14:47:45;;;;;;;32.85;5.47;;;;;;;;;;5094274;28;20043;-70
2023/12/01 14:50:50;;;;;;;25.48;4.90;;;;;;;;;;5094506;28;20407;-70
2023/12/01 14:53:55;;;;;;;41.50;5.93;;;;;;;;;;5094299;28;20388;-70
2023/12/01 14:56:59;;;;;;;46.45;6.40;;;;;;;;;;5093776;28;20039;-70
2023/12/01 15:00:10;;;;;;;38.63;5.57;;;;;;;;;;5093698;28;20043;-71
2023/12/01 15:03:14;;;;;;;32.10;6.37;;;;;;;;;;5094263;28;20035;-70
2023/12/01 15:06:19;;;;;;;38.78;5.97;;;;;;;;;;5093509;28;20051;-70
2023/12/01 15:09:24;;;;;;;39.65;5.30;;;;;;;;;;5093724;28;20106;-71
2023/12/01 15:12:28;;;;;;;33.90;5.70;;;;;;;;;;5093938;28;20055;-70
2023/12/01 15:15:33;;;;;;;33.47;5.40;;;;;;;;;;5093595;28;20043;-70
2023/12/01 15:18:37;;;;;;;27.15;5.50;;;19.70;94.20;;;;;;5093613;28;20051;-70
2023/12/01 15:21:42;;;;;;;40.58;9.50;;;;;;;;;;5093723;28;20044;-71
2023/12/01 15:24:47;;;;;;;42.53;6.32;;;;;;;;;;5093560;28;20055;-70
2023/12/01 15:27:51;;;;;;;25.45;4.97;;;;;;;;;;5093327;28;20526;-70
2023/12/01 15:30:55;;;;;;;45.28;6.60;;;;;;;;;;5093374;28;20047;-71
2023/12/01 15:33:59;;;;;;;40.28;5.55;;;;;;;;;;5093779;28;20403;-71
2023/12/01 15:37:04;;;;;;;47.47;6.72;;;;;;;;;;5093293;28;20055;-70
2023/12/01 15:40:08;;;;;;;33.13;6.63;;;;;;;;;;5093217;28;20106;-70
2023/12/01 15:43:12;;;;;;;48.13;6.45;;;;;;;;;;5092856;28;20047;-70
2023/12/01 15:46:17;;;;;;;31.88;5.20;;;;;;;;;;5092787;28;20062;-70
2023/12/01 15:49:21;;;;;;;45.92;6.28;;;;;;;;;;5092910;28;20047;-70
2023/12/01 15:52:26;;;;;;;43.15;7.45;;;;;;;;;;5093101;28;20047;-70
2023/12/01 15:55:30;;;;;;;32.25;6.07;;;;;;;;;;5093018;28;20051;-70
2023/12/01 15:58:37;;;;;;;51.42;7.03;;;;;;;;;;5092864;28;20047;-70
2023/12/01 16:01:41;;;;;;;37.08;5.88;;;;;;;;;;5092807;28;20403;-69
2023/12/01 16:04:46;;;;;;;54.10;6.93;;;19.40;94.60;;;;;;5092891;28;20055;-70
2023/12/01 16:07:50;;;;;;;47.33;6.80;;;;;;;;;;5092797;28;20051;-69
2023/12/01 16:10:55;;;;;;;45.78;7.95;;;;;;;;;;5092642;28;20087;-68
2023/12/01 16:14:00;;;;;;;38.88;6.55;;;20.20;95.10;;;;;;5092674;28;20051;-69
2023/12/01 16:17:05;;;;;;;40.67;6.57;;;19.40;94.80;;;;;;5092671;28;20055;-69
2023/12/01 16:20:10;;;;;;;42.45;6.47;;;;;;;;;;5092771;28;20039;-69
2023/12/01 16:23:14;;;;;;;42.50;7.30;;;;;;;;;;5092500;28;20062;-68
2023/12/01 16:26:18;;;;;;;47.60;7.18;;;;;;;;;;5092061;28;20055;-68
2023/12/01 16:29:23;;;;;;;44.25;6.60;;;;;;;;;;5092554;28;20043;-69
2023/12/01 16:32:27;;;;;;;42.92;6.85;;;;;;;;;;5092584;28;20039;-68
2023/12/01 16:35:32;;;;;;;32.47;5.93;;;19.20;95.20;;;;;;5092076;28;20055;-71
2023/12/01 16:38:36;;;;;;;36.03;7.43;;;;;;;;;;5091926;28;20055;-68
2023/12/01 16:41:40;;;;;;;34.80;5.80;;;;;;;;;;5092198;28;20047;-70
2023/12/01 16:44:45;;;;;;;49.58;6.55;;;;;;;;;;5091825;28;20043;-68
2023/12/01 16:47:49;;;;;;;44.47;7.38;;;;;;;;;;5091832;28;20055;-69
2023/12/01 16:50:53;;;;;;;32.90;6.00;;;;;;;;;;5091951;28;20110;-69
2023/12/01 16:53:58;;;;;;;39.72;5.55;;;;;;;;;;5091852;28;20047;-68
2023/12/01 16:57:02;;;;;;;36.95;7.25;;;;;;;;;;5092272;28;20047;-69
2023/12/01 17:00:07;;;;;;;37.15;6.28;;;;;;;;;;5091771;28;20059;-69
2023/12/01 17:03:12;;;;;;;40.15;7.05;;;;;;;;;;5091844;28;20039;-69
2023/12/01 17:06:16;;;;;;;33.13;6.07;;;;;;;;;;5090508;28;20554;-69
2023/12/01 17:09:20;;;;;;;39.13;5.47;;;;;;;;;;5091868;28;20043;-70
2023/12/01 17:12:24;;;;;;;35.95;5.88;;;;;;;;;;5079180;28;20047;-70
2023/12/01 17:15:29;;;;;;;31.40;5.38;;;;;;;;;;5091822;28;20444;-69
2023/12/01 17:18:33;;;;;;;23.63;4.70;;;;;;;;;;5091234;28;20055;-69
2023/12/01 17:21:37;;;;;;;27.23;4.68;;;;;;;;;;5091427;28;20039;-69
2023/12/01 17:24:42;;;;;;;31.90;6.75;;;19.00;93.80;;;;;;5091697;28;20514;-70
2023/12/01 17:27:46;;;;;;;33.30;6.07;;;;;;;;;;5091498;28;20077;-70
2023/12/01 17:30:50;;;;;;;40.17;5.65;;;;;;;;;;5091506;28;20051;-70
2023/12/01 17:33:55;;;;;;;43.47;7.10;;;;;;;;;;5091274;28;20043;-68
2023/12/01 17:36:59;;;;;;;36.35;6.15;;;;;;;;;;5091495;28;20043;-68
2023/12/01 17:40:04;;;;;;;37.90;6.22;;;;;;;;;;5091063;28;20043;-69
2023/12/01 17:43:08;;;;;;;42.47;5.97;;;;;;;;;;5091357;28;20051;-68